createdAt,value
2023-02-12T00:01:23.746Z,7.70
2023-02-12T00:03:52.227Z,7.70
2023-02-12T00:06:26.774Z,7.70
2023-02-12T00:08:58.129Z,7.70
2023-02-12T00:11:34.766Z,7.70
2023-02-12T00:14:09.697Z,7.70
2023-02-12T00:16:44.719Z,7.70
2023-02-12T00:19:13.091Z,7.70
2023-02-12T00:21:47.790Z,7.70
2023-02-12T00:24:17.386Z,7.70
2023-02-12T00:26:51.753Z,7.70
2023-02-12T00:29:19.936Z,7.60
2023-02-12T00:31:54.826Z,7.60
2023-02-12T00:34:23.019Z,7.60
2023-02-12T00:36:57.732Z,7.50
2023-02-12T00:39:27.302Z,7.50
2023-02-12T00:42:02.753Z,7.50
2023-02-12T00:44:30.950Z,7.50
2023-02-12T00:47:08.765Z,7.60
2023-02-12T00:49:37.030Z,7.50
2023-02-12T00:52:12.749Z,7.50
2023-02-12T00:54:42.759Z,7.50
2023-02-12T00:57:17.768Z,7.50
2023-02-12T00:59:45.982Z,7.50
2023-02-12T01:02:20.800Z,7.60
2023-02-12T01:04:49.045Z,7.60
2023-02-12T01:07:23.799Z,7.60
2023-02-12T01:09:53.378Z,7.50
2023-02-12T01:12:27.759Z,7.50
2023-02-12T01:15:02.055Z,7.60
2023-02-12T01:17:36.777Z,7.50
2023-02-12T01:20:13.821Z,7.50
2023-02-12T01:22:42.010Z,7.50
2023-02-12T01:25:20.513Z,7.50
2023-02-12T01:27:49.083Z,7.50
2023-02-12T01:30:24.807Z,7.50
2023-02-12T01:32:53.196Z,7.50
2023-02-12T01:35:27.865Z,7.50
2023-02-12T01:37:58.334Z,7.40
2023-02-12T01:40:34.799Z,7.40
2023-02-12T01:43:03.633Z,7.40
2023-02-12T01:45:54.372Z,7.40
2023-02-12T01:48:26.814Z,7.40
2023-02-12T01:51:03.816Z,7.40
2023-02-12T01:53:36.687Z,7.40
2023-02-12T01:56:14.811Z,7.40
2023-02-12T01:58:45.117Z,7.40
2023-02-12T02:01:24.968Z,7.40
2023-02-12T02:04:03.914Z,7.30
2023-02-12T02:06:41.874Z,7.40
2023-02-12T02:09:10.807Z,7.40
2023-02-12T02:12:04.916Z,7.40
2023-02-12T02:14:36.737Z,7.40
2023-02-12T02:17:23.878Z,7.40
2023-02-12T02:20:17.938Z,7.30
2023-02-12T02:22:57.933Z,7.30
2023-02-12T02:25:44.021Z,7.30
2023-02-12T02:28:40.179Z,7.30
2023-02-12T02:31:19.381Z,7.20
2023-02-12T02:34:02.935Z,7.30
2023-02-12T02:36:40.007Z,7.30
2023-02-12T02:39:26.967Z,7.30
2023-02-12T02:42:01.557Z,7.30
2023-02-12T02:44:42.959Z,7.30
2023-02-12T02:47:17.662Z,7.30
2023-02-12T02:49:57.902Z,7.30
2023-02-12T02:52:37.232Z,7.30
2023-02-12T02:55:18.184Z,7.20
2023-02-12T02:57:56.985Z,7.20
2023-02-12T03:00:33.261Z,7.20
2023-02-12T03:03:22.099Z,7.20
2023-02-12T03:05:56.744Z,7.20
2023-02-12T03:08:34.911Z,7.10
2023-02-12T03:11:08.989Z,7.10
2023-02-12T03:13:49.950Z,7.10
2023-02-12T03:16:22.827Z,7.20
2023-02-12T03:19:04.223Z,7.10
2023-02-12T03:21:37.971Z,7.20
2023-02-12T03:24:20.235Z,7.20
2023-02-12T03:26:53.604Z,7.20
2023-02-12T03:29:29.255Z,7.20
2023-02-12T03:32:07.257Z,7.20
2023-02-12T03:34:53.948Z,7.20
2023-02-12T03:37:30.796Z,7.20
2023-02-12T03:40:15.316Z,7.20
2023-02-12T03:42:49.985Z,7.10
2023-02-12T03:45:36.271Z,7.20
2023-02-12T03:48:11.253Z,7.20
2023-02-12T03:50:53.976Z,7.20
2023-02-12T03:53:22.769Z,7.20
2023-02-12T03:56:03.021Z,7.20
2023-02-12T03:58:34.314Z,7.20
2023-02-12T04:01:10.485Z,7.20
2023-02-12T04:03:46.044Z,7.20
2023-02-12T04:06:36.981Z,7.20
2023-02-12T04:09:08.776Z,7.20
2023-02-12T04:11:53.997Z,7.20
2023-02-12T04:14:35.064Z,7.20
2023-02-12T04:17:10.739Z,7.20
2023-02-12T04:19:59.360Z,7.10
2023-02-12T04:22:41.614Z,7.10
2023-02-12T04:25:25.062Z,7.00
2023-02-12T04:28:01.447Z,7.00
2023-02-12T04:30:40.284Z,7.00
2023-02-12T04:33:12.824Z,7.00
2023-02-12T04:35:55.605Z,6.90
2023-02-12T04:38:31.208Z,6.90
2023-02-12T04:41:07.329Z,7.00
2023-02-12T04:43:39.044Z,7.00
2023-02-12T04:46:16.378Z,7.00
2023-02-12T04:48:53.901Z,7.00
2023-02-12T04:51:29.305Z,7.00
2023-02-12T04:53:59.654Z,7.00
2023-02-12T04:56:35.001Z,6.90
2023-02-12T04:59:03.770Z,6.90
2023-02-12T05:01:39.102Z,6.90
2023-02-12T05:04:15.535Z,7.00
2023-02-12T05:06:51.126Z,7.00
2023-02-12T05:09:22.857Z,7.00
2023-02-12T05:11:58.027Z,7.00
2023-02-12T05:14:26.981Z,7.00
2023-02-12T05:17:02.047Z,7.00
2023-02-12T05:19:30.961Z,7.00
2023-02-12T05:22:06.078Z,7.00
2023-02-12T05:24:36.311Z,7.00
2023-02-12T05:27:11.038Z,6.90
2023-02-12T05:29:39.875Z,7.00
2023-02-12T05:32:16.103Z,7.00
2023-02-12T05:34:44.600Z,7.00
2023-02-12T05:37:19.057Z,7.00
2023-02-12T05:39:50.929Z,7.00
2023-02-12T05:42:26.074Z,7.00
2023-02-12T05:44:54.561Z,7.00
2023-02-12T05:47:29.379Z,7.00
2023-02-12T05:49:57.892Z,7.00
2023-02-12T05:52:33.092Z,7.00
2023-02-12T05:55:02.961Z,7.00
2023-02-12T05:57:38.054Z,7.00
2023-02-12T06:00:08.369Z,7.00
2023-02-12T06:02:43.412Z,7.00
2023-02-12T06:05:18.433Z,6.90
2023-02-12T06:07:53.177Z,6.90
2023-02-12T06:10:23.329Z,6.90
2023-02-12T06:13:02.093Z,6.90
2023-02-12T06:15:30.785Z,6.90
2023-02-12T06:18:06.185Z,6.90
2023-02-12T06:20:35.149Z,6.90
2023-02-12T06:23:10.413Z,6.90
2023-02-12T06:25:40.749Z,6.90
2023-02-12T06:28:16.165Z,6.90
2023-02-12T06:30:45.077Z,6.90
2023-02-12T06:33:20.126Z,6.90
2023-02-12T06:35:48.651Z,6.90
2023-02-12T06:38:24.236Z,6.90
2023-02-12T06:40:54.420Z,6.90
2023-02-12T06:43:29.123Z,6.90
2023-02-12T06:45:57.801Z,6.90
2023-02-12T06:48:33.466Z,6.90
2023-02-12T06:51:07.425Z,6.80
2023-02-12T06:53:43.416Z,6.80
2023-02-12T06:56:14.490Z,6.80
2023-02-12T06:58:51.158Z,6.90
2023-02-12T07:01:21.891Z,6.80
2023-02-12T07:04:05.433Z,6.90
2023-02-12T07:06:36.058Z,6.90
2023-02-12T07:09:12.204Z,6.90
2023-02-12T07:11:42.140Z,6.90
2023-02-12T07:14:23.414Z,6.80
2023-02-12T07:16:51.943Z,6.80
2023-02-12T07:19:27.229Z,6.80
2023-02-12T07:21:55.934Z,6.80
2023-02-12T07:24:30.164Z,6.80
2023-02-12T07:27:00.099Z,6.90
2023-02-12T07:29:35.236Z,6.90
2023-02-12T07:32:03.796Z,6.80
2023-02-12T07:34:39.177Z,6.80
2023-02-12T07:37:08.481Z,6.90
2023-02-12T07:39:43.248Z,6.90
2023-02-12T07:42:15.436Z,6.90
2023-02-12T07:44:50.366Z,6.90
2023-02-12T07:47:19.130Z,6.90
2023-02-12T07:49:54.250Z,7.00
2023-02-12T07:52:22.793Z,7.00
2023-02-12T07:54:58.495Z,7.00
2023-02-12T07:57:28.574Z,7.00
2023-02-12T08:00:04.257Z,7.00
2023-02-12T08:02:52.556Z,7.00
2023-02-12T08:05:28.237Z,7.00
2023-02-12T08:07:56.852Z,7.00
2023-02-12T08:10:32.606Z,7.00
2023-02-12T08:13:02.783Z,7.10
2023-02-12T08:15:38.248Z,7.00
2023-02-12T08:18:06.815Z,7.10
2023-02-12T08:20:42.273Z,7.10
2023-02-12T08:23:10.647Z,7.10
2023-02-12T08:25:45.482Z,7.10
2023-02-12T08:28:15.365Z,7.10
2023-02-12T08:30:50.585Z,7.20
2023-02-12T08:33:19.194Z,7.20
2023-02-12T08:35:54.389Z,7.30
2023-02-12T08:38:22.961Z,7.30
2023-02-12T08:40:58.513Z,7.40
2023-02-12T08:43:28.921Z,7.40
2023-02-12T08:46:09.411Z,7.40
2023-02-12T08:48:38.418Z,7.40
2023-02-12T08:51:15.219Z,7.50
2023-02-12T08:53:45.569Z,7.40
2023-02-12T08:56:22.525Z,7.40
2023-02-12T08:58:53.779Z,7.50
2023-02-12T09:01:30.630Z,7.50
2023-02-12T09:04:19.514Z,7.50
2023-02-12T09:06:55.545Z,7.60
2023-02-12T09:09:24.452Z,7.60
2023-02-12T09:11:59.248Z,7.50
2023-02-12T09:14:29.318Z,7.50
2023-02-12T09:17:05.522Z,7.40
2023-02-12T09:19:34.061Z,7.40
2023-02-12T09:22:09.354Z,7.40
2023-02-12T09:24:38.872Z,7.40
2023-02-12T09:27:14.292Z,7.40
2023-02-12T09:29:44.583Z,7.50
2023-02-12T09:32:19.324Z,7.60
2023-02-12T09:34:47.766Z,7.50
2023-02-12T09:37:23.304Z,7.50
2023-02-12T09:39:58.260Z,7.50
2023-02-12T09:42:39.052Z,7.50
2023-02-12T09:45:26.313Z,7.60
2023-02-12T09:48:01.203Z,7.60
2023-02-12T09:50:44.347Z,7.70
2023-02-12T09:53:16.393Z,7.70
2023-02-12T09:55:52.285Z,7.70
2023-02-12T09:58:31.286Z,7.60
2023-02-12T10:01:09.461Z,7.70
2023-02-12T10:03:58.333Z,7.80
2023-02-12T10:06:36.612Z,7.90
2023-02-12T10:09:22.632Z,7.80
2023-02-12T10:12:12.381Z,7.80
2023-02-12T10:15:04.484Z,7.90
2023-02-12T10:17:49.359Z,8.00
2023-02-12T10:20:47.546Z,8.00
2023-02-12T10:23:35.394Z,8.10
2023-02-12T10:26:12.342Z,8.10
2023-02-12T10:28:49.413Z,8.10
2023-02-12T10:31:28.464Z,8.10
2023-02-12T10:34:05.377Z,8.20
2023-02-12T10:36:42.081Z,8.20
2023-02-12T10:39:24.700Z,8.20
2023-02-12T10:42:07.640Z,8.30
2023-02-12T10:44:36.156Z,8.30
2023-02-12T10:47:11.632Z,8.30
2023-02-12T10:49:41.787Z,8.30
2023-02-12T10:52:23.672Z,8.30
2023-02-12T10:54:52.511Z,8.30
2023-02-12T10:57:30.392Z,8.30
2023-02-12T11:00:16.933Z,8.30
2023-02-12T11:03:09.406Z,8.40
2023-02-12T11:05:41.683Z,8.40
2023-02-12T11:08:37.438Z,8.40
2023-02-12T11:11:09.060Z,8.50
2023-02-12T11:13:45.395Z,8.50
2023-02-12T11:16:14.686Z,8.60
2023-02-12T11:18:50.411Z,8.50
2023-02-12T11:21:25.574Z,8.50
2023-02-12T11:24:00.432Z,8.40
2023-02-12T11:26:30.602Z,8.40
2023-02-12T11:29:19.424Z,8.40
2023-02-12T11:32:02.016Z,8.50
2023-02-12T11:34:37.716Z,8.50
2023-02-12T11:37:18.195Z,8.50
2023-02-12T11:39:56.538Z,8.50
2023-02-12T11:42:28.241Z,8.60
2023-02-12T11:45:05.544Z,8.60
2023-02-12T11:47:36.981Z,8.60
2023-02-12T11:50:16.412Z,8.60
2023-02-12T11:52:52.847Z,8.60
2023-02-12T11:55:33.724Z,8.70
2023-02-12T11:58:12.756Z,8.70
2023-02-12T12:01:01.373Z,8.80
2023-02-12T12:03:58.508Z,8.80
2023-02-12T12:06:36.617Z,8.80
2023-02-12T12:09:21.435Z,8.80
2023-02-12T12:11:58.480Z,8.70
2023-02-12T12:14:37.677Z,8.70
2023-02-12T12:17:42.964Z,8.80
2023-02-12T12:20:21.565Z,8.80
2023-02-12T12:22:55.902Z,8.70
2023-02-12T12:25:34.724Z,8.70
2023-02-12T12:28:13.589Z,8.70
2023-02-12T12:31:03.490Z,8.70
2023-02-12T12:33:39.574Z,8.60
2023-02-12T12:36:52.778Z,8.70
2023-02-12T12:39:56.429Z,8.70
2023-02-12T12:43:12.508Z,8.70
2023-02-12T12:46:23.458Z,8.70
2023-02-12T12:49:12.771Z,8.60
2023-02-12T12:52:20.614Z,8.60
2023-02-12T12:55:08.481Z,8.60
2023-02-12T12:57:54.493Z,8.60
2023-02-12T13:00:39.081Z,8.60
2023-02-12T13:03:52.515Z,8.60
2023-02-12T13:06:43.010Z,8.60
2023-02-12T13:09:50.732Z,8.70
2023-02-12T13:12:42.609Z,8.70
2023-02-12T13:15:20.679Z,8.70
2023-02-12T13:18:02.592Z,8.70
2023-02-12T13:20:42.370Z,8.60
2023-02-12T13:23:24.793Z,8.60
2023-02-12T13:26:02.363Z,8.60
2023-02-12T13:28:42.492Z,8.60
2023-02-12T13:34:15.519Z,8.70
2023-02-12T13:36:44.672Z,8.70
2023-02-12T13:39:32.198Z,8.80
2023-02-12T13:42:27.205Z,8.70
2023-02-12T13:45:09.483Z,8.70
2023-02-12T13:47:48.320Z,8.70
2023-02-12T13:50:43.512Z,8.80
2023-02-12T13:53:21.337Z,8.80
2023-02-12T13:56:11.858Z,8.80
2023-02-12T13:58:49.566Z,8.80
2023-02-12T14:01:50.659Z,8.80
2023-02-12T14:04:48.462Z,8.80
2023-02-12T14:07:17.954Z,8.80
2023-02-12T14:09:54.636Z,8.80
2023-02-12T14:12:35.811Z,8.80
2023-02-12T14:15:15.597Z,8.70
2023-02-12T14:17:55.437Z,8.70
2023-02-12T14:20:36.493Z,8.80
2023-02-12T14:23:24.447Z,8.80
2023-02-12T14:26:14.535Z,8.70
2023-02-12T14:28:57.152Z,8.70
2023-02-12T14:31:43.901Z,8.70
2023-02-12T14:34:59.171Z,8.80
2023-02-12T14:37:43.908Z,8.80
2023-02-12T14:40:44.487Z,8.80
2023-02-12T14:43:35.581Z,8.70
2023-02-12T14:46:57.588Z,8.70
2023-02-12T14:49:29.859Z,8.80
2023-02-12T14:52:08.525Z,8.80
2023-02-12T14:54:42.871Z,8.70
2023-02-12T14:57:28.884Z,8.80
2023-02-12T15:00:00.190Z,8.80
2023-02-12T15:02:37.563Z,8.80
2023-02-12T15:05:20.552Z,8.70
2023-02-12T15:08:02.667Z,8.70
2023-02-12T15:10:34.055Z,8.70
2023-02-12T15:13:22.583Z,8.70
2023-02-12T15:15:54.874Z,8.70
2023-02-12T15:18:37.558Z,8.70
2023-02-12T15:21:16.654Z,8.70
2023-02-12T15:23:54.012Z,8.70
2023-02-12T15:26:25.624Z,8.70
2023-02-12T15:29:01.897Z,8.60
2023-02-12T15:31:32.301Z,8.70
2023-02-12T15:34:10.620Z,8.60
2023-02-12T15:36:41.071Z,8.60
2023-02-12T15:39:18.657Z,8.60
2023-02-12T15:41:47.952Z,8.60
2023-02-12T15:44:35.590Z,8.70
2023-02-12T15:47:12.928Z,8.70
2023-02-12T15:49:51.112Z,8.80
2023-02-12T15:52:24.812Z,8.70
2023-02-12T15:55:00.896Z,8.80
2023-02-12T15:57:29.499Z,8.80
2023-02-12T16:00:10.624Z,8.80
2023-02-12T16:02:39.350Z,8.80
2023-02-12T16:05:21.932Z,8.80
2023-02-12T16:07:52.845Z,8.80
2023-02-12T16:10:28.613Z,8.80
2023-02-12T16:12:57.307Z,8.80
2023-02-12T16:15:37.696Z,8.90
2023-02-12T16:18:07.272Z,8.80
2023-02-12T16:20:42.946Z,8.80
2023-02-12T16:23:15.425Z,8.80
2023-02-12T16:25:50.913Z,8.80
2023-02-12T16:28:26.121Z,8.80
2023-02-12T16:31:01.979Z,8.80
2023-02-12T16:33:35.924Z,8.70
2023-02-12T16:36:13.957Z,8.70
2023-02-12T16:38:45.633Z,8.70
2023-02-12T16:41:31.647Z,8.70
2023-02-12T16:44:23.637Z,8.70
2023-02-12T16:47:00.905Z,8.70
2023-02-12T16:49:30.300Z,8.70
2023-02-12T16:52:34.656Z,8.70
2023-02-12T16:55:12.117Z,8.70
2023-02-12T16:57:40.568Z,8.70
2023-02-12T17:00:23.734Z,8.70
2023-02-12T17:02:52.375Z,8.70
2023-02-12T17:05:33.610Z,8.60
2023-02-12T17:08:08.185Z,8.60
2023-02-12T17:10:44.745Z,8.60
2023-02-12T17:13:13.616Z,8.60
2023-02-12T17:16:00.255Z,8.50
2023-02-12T17:18:33.071Z,8.50
2023-02-12T17:21:10.681Z,8.50
2023-02-12T17:23:41.220Z,8.50
2023-02-12T17:26:19.059Z,8.50
2023-02-12T17:28:47.542Z,8.50
2023-02-12T17:31:23.026Z,8.50
2023-02-12T17:33:51.593Z,8.50
2023-02-12T17:36:26.728Z,8.50
2023-02-12T17:38:55.352Z,8.40
2023-02-12T17:41:32.719Z,8.40
2023-02-12T17:44:01.379Z,8.40
2023-02-12T17:46:37.706Z,8.40
2023-02-12T17:49:06.818Z,8.40
2023-02-12T17:51:42.779Z,8.40
2023-02-12T17:54:11.005Z,8.40
2023-02-12T17:56:47.773Z,8.40
2023-02-12T17:59:16.614Z,8.40
2023-02-12T18:01:52.024Z,8.40
2023-02-12T18:04:40.798Z,8.40
2023-02-12T18:07:16.009Z,8.40
2023-02-12T18:09:44.644Z,8.40
2023-02-12T18:12:20.712Z,8.40
2023-02-12T18:14:49.570Z,8.40
2023-02-12T18:17:24.724Z,8.40
2023-02-12T18:19:53.874Z,8.30
2023-02-12T18:22:29.718Z,8.30
2023-02-12T18:24:58.191Z,8.30
2023-02-12T18:27:37.024Z,8.30
2023-02-12T18:30:06.072Z,8.30
2023-02-12T18:32:41.154Z,8.30
2023-02-12T18:35:09.993Z,8.30
2023-02-12T18:37:45.812Z,8.30
2023-02-12T18:40:14.581Z,8.20
2023-02-12T18:42:50.762Z,8.20
2023-02-12T18:45:20.145Z,8.20
2023-02-12T18:47:55.090Z,8.20
2023-02-12T18:50:23.549Z,8.20
2023-02-12T18:52:59.103Z,8.20
2023-02-12T18:55:27.522Z,8.10
2023-02-12T18:58:03.823Z,8.10
2023-02-12T19:00:32.538Z,8.10
2023-02-12T19:03:07.785Z,8.10
2023-02-12T19:05:43.169Z,8.10
2023-02-12T19:08:18.783Z,8.00
2023-02-12T19:10:49.840Z,8.00
2023-02-12T19:13:27.820Z,8.00
2023-02-12T19:15:56.622Z,8.00
2023-02-12T19:18:31.801Z,7.90
2023-02-12T19:21:00.996Z,7.90
2023-02-12T19:23:35.848Z,7.90
2023-02-12T19:26:06.318Z,7.90
2023-02-12T19:28:45.091Z,7.80
2023-02-12T19:31:15.771Z,7.80
2023-02-12T19:33:51.820Z,7.80
2023-02-12T19:36:21.894Z,7.70
2023-02-12T19:38:56.811Z,7.70
2023-02-12T19:41:27.976Z,7.70
2023-02-12T19:44:05.843Z,7.60
2023-02-12T19:46:34.504Z,7.60
2023-02-12T19:49:10.880Z,7.60
2023-02-12T19:51:39.752Z,7.50
2023-02-12T19:54:16.889Z,7.50
2023-02-12T19:56:46.392Z,7.50
2023-02-12T19:59:24.864Z,7.50
2023-02-12T20:01:53.323Z,7.40
2023-02-12T20:04:30.082Z,7.30
2023-02-12T20:07:12.145Z,7.30
2023-02-12T20:09:41.503Z,7.30
2023-02-12T20:12:17.232Z,7.20
2023-02-12T20:14:47.079Z,7.20
2023-02-12T20:17:21.883Z,7.20
2023-02-12T20:19:50.500Z,7.10
2023-02-12T20:22:26.192Z,7.10
2023-02-12T20:24:54.944Z,7.00
2023-02-12T20:27:30.146Z,7.00
2023-02-12T20:30:00.021Z,6.90
2023-02-12T20:32:35.165Z,6.90
2023-02-12T20:35:04.105Z,6.80
2023-02-12T20:37:40.853Z,6.70
2023-02-12T20:40:10.441Z,6.70
2023-02-12T20:42:45.897Z,6.70
2023-02-12T20:45:15.864Z,6.60
2023-02-12T20:47:50.885Z,6.60
2023-02-12T20:50:19.637Z,6.60
2023-02-12T20:52:54.868Z,6.50
2023-02-12T20:55:23.428Z,6.50
2023-02-12T20:57:59.182Z,6.50
2023-02-12T21:00:29.620Z,6.50
2023-02-12T21:03:05.915Z,6.50
2023-02-12T21:05:41.476Z,6.40
2023-02-12T21:08:16.850Z,6.40
2023-02-12T21:10:45.671Z,6.30
2023-02-12T21:13:20.888Z,6.30
2023-02-12T21:15:51.083Z,6.30
2023-02-12T21:18:28.927Z,6.20
2023-02-12T21:21:02.318Z,6.20
2023-02-12T21:23:36.913Z,6.10
2023-02-12T21:26:06.695Z,6.10
2023-02-12T21:28:43.038Z,6.10
2023-02-12T21:31:16.123Z,6.00
2023-02-12T21:33:52.942Z,5.90
2023-02-12T21:36:23.907Z,5.90
2023-02-12T21:38:59.934Z,5.80
2023-02-12T21:41:30.942Z,5.70
2023-02-12T21:44:07.939Z,5.70
2023-02-12T21:46:38.290Z,5.60
2023-02-12T21:49:14.208Z,5.60
2023-02-12T21:51:45.354Z,5.60
2023-02-12T21:54:21.930Z,5.50
2023-02-12T21:56:51.680Z,5.50
2023-02-12T21:59:26.949Z,5.30
2023-02-12T22:01:58.630Z,5.40
2023-02-12T22:04:33.947Z,5.30
2023-02-12T22:07:03.620Z,5.30
2023-02-12T22:09:39.210Z,5.30
2023-02-12T22:12:08.187Z,5.20
2023-02-12T22:14:43.029Z,5.20
2023-02-12T22:17:13.354Z,5.20
2023-02-12T22:19:48.955Z,5.20
2023-02-12T22:22:17.440Z,5.30
2023-02-12T22:24:52.884Z,5.30
2023-02-12T22:27:21.478Z,5.30
2023-02-12T22:29:56.992Z,5.30
2023-02-12T22:32:27.444Z,5.30
2023-02-12T22:35:03.243Z,5.30
2023-02-12T22:37:31.970Z,5.30
2023-02-12T22:40:07.538Z,5.20
2023-02-12T22:42:36.185Z,5.30
2023-02-12T22:45:10.934Z,5.20
2023-02-12T22:47:41.224Z,5.20
2023-02-12T22:50:16.971Z,5.20
2023-02-12T22:52:45.858Z,5.20
2023-02-12T22:55:21.009Z,5.20
2023-02-12T22:57:49.805Z,5.10
2023-02-12T23:00:25.951Z,5.10
2023-02-12T23:02:56.393Z,5.10
2023-02-12T23:05:31.968Z,5.10
2023-02-12T23:08:00.569Z,5.10
2023-02-12T23:10:36.048Z,5.10
2023-02-12T23:13:05.649Z,5.10
2023-02-12T23:15:40.969Z,5.00
2023-02-12T23:18:17.991Z,5.00
2023-02-12T23:20:46.542Z,4.90
2023-02-12T23:23:22.031Z,4.80
2023-02-12T23:25:51.170Z,4.80
2023-02-12T23:28:26.375Z,4.80
2023-02-12T23:30:55.569Z,4.80
2023-02-12T23:33:32.054Z,4.80
2023-02-12T23:36:00.787Z,4.80
2023-02-12T23:38:36.083Z,4.80
2023-02-12T23:41:04.611Z,4.80
2023-02-12T23:43:40.067Z,4.80
2023-02-12T23:46:09.708Z,4.70
2023-02-12T23:48:46.085Z,4.70
2023-02-12T23:51:14.806Z,4.70
2023-02-12T23:53:50.346Z,4.70
2023-02-12T23:56:19.142Z,4.60
2023-02-12T23:58:54.027Z,4.70
